Time;durP1;ratioP1;P1;durP2;ratioP2;P2;SDS_P1;SDS_P2;PMS_P1;PMS_P2;Temp;Humidity;BMP_temperature;BMP_pressure;BME280_temperature;BME280_humidity;BME280_pressure;Samples;Min_cycle;Max_cycle;Signal;HPM_P1;HPM_P2
2022/04/12 00:00:20;;;;;;;;;;;21.10;30.70;;;;;;5163498;27;19923;-55
2022/04/12 00:02:46;;;;;;;;;;;21.00;30.90;;;;;;5164622;27;19926;-58
2022/04/12 00:05:12;;;;;;;;;;;21.10;30.90;;;;;;5168510;27;19923;-53
2022/04/12 00:07:38;;;;;;;;;;;21.00;30.90;;;;;;5163660;27;20015;-59
2022/04/12 00:10:04;;;;;;;;;;;21.10;30.70;;;;;;5163101;27;19927;-57
2022/04/12 00:12:30;;;;;;;;;;;21.20;30.60;;;;;;5169686;27;19974;-58
2022/04/12 00:14:56;;;;;;;;;;;21.00;31.00;;;;;;5164434;27;20393;-52
2022/04/12 00:20:06;;;;;;;;;;;21.10;30.90;;;;;;5169795;27;19939;-56
2022/04/12 00:22:32;;;;;;;;;;;21.00;30.80;;;;;;5163451;27;20282;-57
2022/04/12 00:25:00;;;;;;;;;;;21.20;30.50;;;;;;5167840;27;19923;-58
2022/04/12 00:27:26;;;;;;;;;;;21.00;30.90;;;;;;5163602;27;19923;-55
2022/04/12 00:29:52;;;;;;;;;;;21.10;30.70;;;;;;5162996;27;20033;-59
2022/04/12 00:32:18;;;;;;;;;;;21.00;30.80;;;;;;5169621;27;19923;-55
2022/04/12 00:34:44;;;;;;;;;;;21.10;30.60;;;;;;5164121;27;19930;-59
2022/04/12 00:37:09;;;;;;;;;;;20.90;30.80;;;;;;5162782;27;20157;-54
2022/04/12 00:39:37;;;;;;;;;;;21.00;30.60;;;;;;5169453;27;19927;-59
2022/04/12 00:42:06;;;;;;;;;;;21.10;30.70;;;;;;5162442;27;19923;-54
2022/04/12 00:44:31;;;;;;;;;;;21.10;30.70;;;;;;5168464;27;19926;-55
2022/04/12 00:46:57;;;;;;;;;;;21.10;30.70;;;;;;5162321;27;20394;-57
2022/04/12 00:49:23;;;;;;;;;;;21.00;31.00;;;;;;5163719;27;20353;-55
2022/04/12 00:51:49;;;;;;;;;;;21.20;30.60;;;;;;5169160;27;19931;-58
2022/04/12 00:54:17;;;;;;;;;;;21.00;31.10;;;;;;5144398;27;19926;-58
2022/04/12 00:56:42;;;;;;;;;;;21.20;30.80;;;;;;5163172;27;19927;-59
2022/04/12 00:59:08;;;;;;;;;;;21.00;31.20;;;;;;5168675;27;19934;-53
2022/04/12 01:01:34;;;;;;;;;;;21.20;30.90;;;;;;5161720;27;20378;-56
2022/04/12 01:04:00;;;;;;;;;;;20.90;31.30;;;;;;5166188;27;20034;-54
2022/04/12 01:06:26;;;;;;;;;;;21.10;31.00;;;;;;5164631;27;19930;-58
2022/04/12 01:08:52;;;;;;;;;;;21.00;31.20;;;;;;5163584;27;19927;-50
2022/04/12 01:11:17;;;;;;;;;;;21.10;31.00;;;;;;5168867;27;20274;-54
2022/04/12 01:13:43;;;;;;;;;;;21.20;30.90;;;;;;5162279;27;19926;-56
2022/04/12 01:16:09;;;;;;;;;;;21.00;31.20;;;;;;5163459;27;19926;-49
2022/04/12 01:18:35;;;;;;;;;;;21.20;31.00;;;;;;5167859;27;20371;-59
2022/04/12 01:21:01;;;;;;;;;;;21.00;31.30;;;;;;5162002;27;19946;-52
2022/04/12 01:23:28;;;;;;;;;;;21.30;30.90;;;;;;5163214;27;19970;-57
2022/04/12 01:25:53;;;;;;;;;;;21.00;31.40;;;;;;5167807;27;19923;-50
2022/04/12 01:28:19;;;;;;;;;;;21.30;31.00;;;;;;5163401;27;19952;-59
2022/04/12 01:30:45;;;;;;;;;;;21.00;31.30;;;;;;5168523;27;19923;-58
2022/04/12 01:33:11;;;;;;;;;;;21.20;31.00;;;;;;5162271;27;20014;-58
2022/04/12 01:35:37;;;;;;;;;;;20.90;31.40;;;;;;5162983;27;20018;-50
2022/04/12 01:38:02;;;;;;;;;;;21.20;30.90;;;;;;5166544;27;20382;-58
2022/04/12 01:40:28;;;;;;;;;;;20.90;31.20;;;;;;5162167;27;19923;-55
2022/04/12 01:42:54;;;;;;;;;;;21.20;30.90;;;;;;5161445;27;20305;-59
2022/04/12 01:45:24;;;;;;;;;;;21.10;31.10;;;;;;5168409;27;19926;-58
2022/04/12 01:47:50;;;;;;;;;;;21.00;31.20;;;;;;5163047;27;20535;-53
2022/04/12 01:50:15;;;;;;;;;;;21.20;30.90;;;;;;5167237;27;19937;-58
2022/04/12 01:52:41;;;;;;;;;;;21.00;31.20;;;;;;5162885;27;20024;-58
2022/04/12 01:55:08;;;;;;;;;;;21.20;31.00;;;;;;5161999;27;19926;-59
2022/04/12 01:57:34;;;;;;;;;;;21.00;31.30;;;;;;5166466;27;19922;-55
2022/04/12 01:59:59;;;;;;;;;;;21.00;31.20;;;;;;5161675;27;19994;-59
2022/04/12 02:02:25;;;;;;;;;;;21.20;31.10;;;;;;5160953;27;21056;-56
2022/04/12 02:04:51;;;;;;;;;;;21.00;31.30;;;;;;5167918;27;19965;-58
2022/04/12 02:07:17;;;;;;;;;;;21.20;31.10;;;;;;5162712;27;19965;-58
2022/04/12 02:09:43;;;;;;;;;;;21.10;31.10;;;;;;5167016;27;20013;-57
2022/04/12 02:12:09;;;;;;;;;;;21.10;31.20;;;;;;5162779;27;19926;-53
2022/04/12 02:14:34;;;;;;;;;;;21.10;31.00;;;;;;5160996;27;20014;-58
2022/04/12 02:17:00;;;;;;;;;;;21.10;31.00;;;;;;5166701;27;20434;-50
2022/04/12 02:19:26;;;;;;;;;;;21.10;31.00;;;;;;5160719;27;19922;-60
2022/04/12 02:21:52;;;;;;;;;;;21.20;30.90;;;;;;5162203;27;19930;-58
2022/04/12 02:24:17;;;;;;;;;;;21.10;31.00;;;;;;5168029;27;20887;-59
2022/04/12 02:26:44;;;;;;;;;;;21.00;31.20;;;;;;5161494;27;19937;-55
2022/04/12 02:29:12;;;;;;;;;;;21.30;30.70;;;;;;5165051;27;20054;-59
2022/04/12 02:31:37;;;;;;;;;;;21.00;31.20;;;;;;5165186;27;19929;-53
2022/04/12 02:34:03;;;;;;;;;;;21.10;31.00;;;;;;5160378;27;20421;-57
2022/04/12 02:36:29;;;;;;;;;;;21.20;31.00;;;;;;5167138;27;19942;-55
2022/04/12 02:38:55;;;;;;;;;;;21.00;31.20;;;;;;5160741;27;19923;-58
2022/04/12 02:41:21;;;;;;;;;;;21.00;31.30;;;;;;5162147;27;20404;-56
2022/04/12 02:43:46;;;;;;;;;;;21.10;31.00;;;;;;5167623;27;20051;-58
2022/04/12 02:46:12;;;;;;;;;;;21.00;31.20;;;;;;5160898;27;19927;-55
2022/04/12 02:48:38;;;;;;;;;;;21.20;31.00;;;;;;5162327;27;20017;-58
2022/04/12 02:51:04;;;;;;;;;;;21.10;31.10;;;;;;5166063;27;19930;-58
2022/04/12 02:53:29;;;;;;;;;;;21.00;31.30;;;;;;5160583;27;19923;-50
2022/04/12 02:55:55;;;;;;;;;;;21.20;30.90;;;;;;5166123;27;19934;-58
2022/04/12 02:58:21;;;;;;;;;;;21.00;31.20;;;;;;5161326;27;19923;-49
2022/04/12 03:00:47;;;;;;;;;;;21.20;30.80;;;;;;5161972;27;20366;-59
2022/04/12 03:03:12;;;;;;;;;;;20.90;31.30;;;;;;5166739;27;20297;-52
2022/04/12 03:05:38;;;;;;;;;;;21.10;30.90;;;;;;5161351;27;19923;-58
2022/04/12 03:08:05;;;;;;;;;;;21.10;31.00;;;;;;5161867;27;19930;-55
2022/04/12 03:10:30;;;;;;;;;;;21.10;31.00;;;;;;5165501;27;20385;-59
2022/04/12 03:12:56;;;;;;;;;;;21.00;31.10;;;;;;5162489;27;19929;-56
2022/04/12 03:15:22;;;;;;;;;;;21.10;31.00;;;;;;5169346;27;20026;-59
2022/04/12 03:17:48;;;;;;;;;;;21.10;30.90;;;;;;5165646;27;20282;-58
2022/04/12 03:20:14;;;;;;;;;;;20.90;31.10;;;;;;5165424;27;20014;-57
2022/04/12 03:22:41;;;;;;;;;;;21.00;31.10;;;;;;5169731;27;19942;-59
2022/04/12 03:25:09;;;;;;;;;;;21.10;30.90;;;;;;5165172;27;20013;-58
2022/04/12 03:27:34;;;;;;;;;;;21.10;31.00;;;;;;5164461;27;19941;-54
2022/04/12 03:30:00;;;;;;;;;;;21.10;30.90;;;;;;5168857;27;19927;-59
2022/04/12 03:32:29;;;;;;;;;;;21.10;31.00;;;;;;5164009;27;20300;-55
2022/04/12 03:34:54;;;;;;;;;;;21.20;30.70;;;;;;5168902;27;20293;-59
2022/04/12 03:37:20;;;;;;;;;;;21.00;31.10;;;;;;5166293;27;19927;-51
2022/04/12 03:39:47;;;;;;;;;;;21.20;30.70;;;;;;5164958;27;19923;-58
2022/04/12 03:42:14;;;;;;;;;;;21.10;30.90;;;;;;5169662;27;20006;-55
2022/04/12 03:44:40;;;;;;;;;;;21.10;30.80;;;;;;5164717;27;19930;-58
2022/04/12 03:47:07;;;;;;;;;;;21.00;31.00;;;;;;5143828;27;20034;-52
2022/04/12 03:49:33;;;;;;;;;;;21.10;30.80;;;;;;5169150;27;21083;-48
2022/04/12 03:51:58;;;;;;;;;;;21.20;30.70;;;;;;5163012;27;20271;-57
2022/04/12 03:54:24;;;;;;;;;;;21.00;31.10;;;;;;5165837;27;19967;-59
2022/04/12 03:56:50;;;;;;;;;;;21.20;30.80;;;;;;5169585;27;20362;-58
2022/04/12 03:59:16;;;;;;;;;;;20.90;31.30;;;;;;5163726;27;20045;-59
2022/04/12 04:01:41;;;;;;;;;;;21.00;31.10;;;;;;5170197;27;19926;-50
2022/04/12 04:04:07;;;;;;;;;;;21.20;30.80;;;;;;5164023;27;19930;-56
2022/04/12 04:06:33;;;;;;;;;;;21.10;31.00;;;;;;5162645;27;19923;-57
2022/04/12 04:08:59;;;;;;;;;;;21.10;31.00;;;;;;5169292;27;19922;-47
2022/04/12 04:11:25;;;;;;;;;;;21.10;30.90;;;;;;5162965;27;19927;-58
2022/04/12 04:13:51;;;;;;;;;;;21.20;30.80;;;;;;5164368;27;19930;-48
2022/04/12 04:16:17;;;;;;;;;;;21.00;30.90;;;;;;5169997;27;19923;-58
2022/04/12 04:18:43;;;;;;;;;;;21.20;30.70;;;;;;5163494;27;19923;-53
2022/04/12 04:21:09;;;;;;;;;;;21.10;30.90;;;;;;5169695;27;19937;-59
2022/04/12 04:23:35;;;;;;;;;;;21.10;30.80;;;;;;5162411;27;19927;-54
2022/04/12 04:26:00;;;;;;;;;;;21.10;30.70;;;;;;5162992;27;19981;-58
2022/04/12 04:28:29;;;;;;;;;;;21.20;30.60;;;;;;5132155;27;19929;-58
2022/04/12 04:30:55;;;;;;;;;;;21.00;30.90;;;;;;5163737;27;19951;-47
2022/04/12 04:33:21;;;;;;;;;;;21.20;30.50;;;;;;5164387;27;20131;-58
2022/04/12 04:35:47;;;;;;;;;;;21.00;30.80;;;;;;5168970;27;19929;-55
2022/04/12 04:38:13;;;;;;;;;;;21.30;30.30;;;;;;5163732;27;19994;-59
2022/04/12 04:40:39;;;;;;;;;;;20.90;30.80;;;;;;5168889;27;20373;-53
2022/04/12 04:43:05;;;;;;;;;;;21.20;30.30;;;;;;5143462;27;19922;-59
2022/04/12 04:45:31;;;;;;;;;;;20.80;30.80;;;;;;5163152;27;19929;-53
2022/04/12 04:47:58;;;;;;;;;;;21.10;30.30;;;;;;5167850;27;19979;-59
2022/04/12 04:50:24;;;;;;;;;;;21.00;30.60;;;;;;5164101;27;19927;-52
2022/04/12 04:52:50;;;;;;;;;;;21.30;30.30;;;;;;5164089;27;20270;-58
2022/04/12 04:55:16;;;;;;;;;;;21.10;30.60;;;;;;5168252;27;20367;-47
2022/04/12 04:57:42;;;;;;;;;;;21.30;30.30;;;;;;5163762;27;20298;-58
2022/04/12 05:00:08;;;;;;;;;;;21.00;30.80;;;;;;5165618;27;19922;-57
2022/04/12 05:02:34;;;;;;;;;;;21.10;30.60;;;;;;5165214;27;19922;-58
2022/04/12 05:05:03;;;;;;;;;;;20.90;30.90;;;;;;5162036;27;19934;-56
2022/04/12 05:07:29;;;;;;;;;;;21.20;30.40;;;;;;5168582;27;19946;-59
2022/04/12 05:09:55;;;;;;;;;;;21.00;30.80;;;;;;5163592;27;20334;-51
2022/04/12 05:12:21;;;;;;;;;;;21.20;30.40;;;;;;5162794;27;19923;-58
2022/04/12 05:14:46;;;;;;;;;;;21.10;30.70;;;;;;5168458;27;19933;-57
2022/04/12 05:17:12;;;;;;;;;;;21.30;30.50;;;;;;5163215;27;19922;-58
2022/04/12 05:19:38;;;;;;;;;;;21.10;30.60;;;;;;5161560;27;20375;-58
2022/04/12 05:22:04;;;;;;;;;;;21.20;30.50;;;;;;5167958;27;19927;-58
2022/04/12 05:24:29;;;;;;;;;;;21.00;30.80;;;;;;5161629;27;19931;-58
2022/04/12 05:26:55;;;;;;;;;;;20.90;30.80;;;;;;5168874;27;19929;-51
2022/04/12 05:29:21;;;;;;;;;;;21.20;30.50;;;;;;5163487;27;20017;-58
2022/04/12 05:31:47;;;;;;;;;;;20.90;30.80;;;;;;5162041;27;19926;-55
2022/04/12 05:34:12;;;;;;;;;;;21.10;30.40;;;;;;5168592;27;19922;-54
2022/04/12 05:36:38;;;;;;;;;;;21.20;30.30;;;;;;5161149;27;19934;-50
2022/04/12 05:39:04;;;;;;;;;;;21.10;30.40;;;;;;5161213;27;19952;-56
2022/04/12 05:41:30;;;;;;;;;;;21.20;30.30;;;;;;5167497;27;20363;-52
2022/04/12 05:43:55;;;;;;;;;;;21.00;30.40;;;;;;5143624;27;20289;-58
2022/04/12 05:46:21;;;;;;;;;;;21.20;30.10;;;;;;5150046;27;19946;-58
2022/04/12 05:48:47;;;;;;;;;;;20.90;30.60;;;;;;5162739;27;19930;-48
2022/04/12 05:51:13;;;;;;;;;;;21.20;30.30;;;;;;5161937;27;19923;-58
2022/04/12 05:53:39;;;;;;;;;;;21.00;30.50;;;;;;5168327;27;19930;-56
2022/04/12 05:56:04;;;;;;;;;;;21.10;30.20;;;;;;5160899;27;19927;-59
2022/04/12 05:58:35;;;;;;;;;;;21.00;30.30;;;;;;5161816;27;20018;-53
2022/04/12 06:01:01;;;;;;;;;;;20.90;30.20;;;;;;5166366;27;19923;-58
2022/04/12 06:03:27;;;;;;;;;;;21.10;30.00;;;;;;5143986;27;20002;-57
2022/04/12 06:05:53;;;;;;;;;;;21.30;29.80;;;;;;5167184;27;19930;-55
2022/04/12 06:08:19;;;;;;;;;;;21.00;30.00;;;;;;5162918;27;19931;-56
2022/04/12 06:10:44;;;;;;;;;;;21.10;29.80;;;;;;5162408;27;19923;-53
2022/04/12 06:13:10;;;;;;;;;;;21.10;29.80;;;;;;5167438;27;19946;-54
2022/04/12 06:15:36;;;;;;;;;;;21.00;30.00;;;;;;5160626;27;19926;-51
2022/04/12 06:18:02;;;;;;;;;;;21.30;29.80;;;;;;5161724;27;19923;-59
2022/04/12 06:20:27;;;;;;;;;;;21.00;30.20;;;;;;5166630;27;19930;-56
2022/04/12 06:22:53;;;;;;;;;;;21.20;30.00;;;;;;5162548;27;19971;-59
2022/04/12 06:25:20;;;;;;;;;;;21.10;30.00;;;;;;5164779;27;20025;-56
2022/04/12 06:27:50;;;;;;;;;;;21.00;30.00;;;;;;5164851;27;20344;-58
2022/04/12 06:30:20;;;;;;;;;;;21.10;29.90;;;;;;5162333;27;20044;-55
2022/04/12 06:32:45;;;;;;;;;;;21.00;30.10;;;;;;5166009;27;19930;-51
2022/04/12 06:35:12;;;;;;;;;;;21.30;29.80;;;;;;5161006;27;19926;-59
2022/04/12 06:37:39;;;;;;;;;;;21.00;30.20;;;;;;5160580;27;20449;-52
2022/04/12 06:40:06;;;;;;;;;;;21.20;29.90;;;;;;5167417;27;19922;-54
2022/04/12 06:42:32;;;;;;;;;;;20.90;30.30;;;;;;5162151;27;19923;-57
2022/04/12 06:44:58;;;;;;;;;;;21.10;30.00;;;;;;5142853;27;19971;-58
2022/04/12 06:47:23;;;;;;;;;;;21.00;30.30;;;;;;5168964;27;19933;-53
2022/04/12 06:49:50;;;;;;;;;;;21.20;30.00;;;;;;5165210;27;19976;-56
2022/04/12 06:52:16;;;;;;;;;;;20.90;30.40;;;;;;5169092;27;19922;-56
2022/04/12 06:54:42;;;;;;;;;;;21.30;30.00;;;;;;5164873;27;20285;-59
2022/04/12 06:57:07;;;;;;;;;;;21.00;30.30;;;;;;5164027;27;20010;-57
2022/04/12 06:59:34;;;;;;;;;;;21.20;29.90;;;;;;5171100;27;20010;-58
2022/04/12 07:02:01;;;;;;;;;;;20.90;30.30;;;;;;5165639;27;20053;-57
2022/04/12 07:04:27;;;;;;;;;;;21.30;29.90;;;;;;5145896;27;20094;-58
2022/04/12 07:06:53;;;;;;;;;;;21.00;30.30;;;;;;5170892;27;20006;-58
2022/04/12 07:09:20;;;;;;;;;;;21.10;30.00;;;;;;5164154;27;20005;-57
2022/04/12 07:11:49;;;;;;;;;;;21.20;29.90;;;;;;5166803;27;19923;-57
2022/04/12 07:14:15;;;;;;;;;;;21.10;29.80;;;;;;5164689;27;19927;-59
2022/04/12 07:16:41;;;;;;;;;;;21.10;30.00;;;;;;5164953;27;20267;-47
2022/04/12 07:19:07;;;;;;;;;;;21.10;30.20;;;;;;5170915;27;19923;-54
2022/04/12 07:21:33;;;;;;;;;;;21.20;30.10;;;;;;5164676;27;19927;-57
2022/04/12 07:24:03;;;;;;;;;;;20.90;30.50;;;;;;5164697;27;19922;-54
2022/04/12 07:26:29;;;;;;;;;;;21.30;30.20;;;;;;5170350;27;19927;-57
2022/04/12 07:28:55;;;;;;;;;;;21.00;30.30;;;;;;5163137;27;19926;-49
2022/04/12 07:31:21;;;;;;;;;;;21.10;30.30;;;;;;5164353;27;20202;-53
2022/04/12 07:33:47;;;;;;;;;;;21.10;30.30;;;;;;5168967;27;19927;-54
2022/04/12 07:36:12;;;;;;;;;;;21.30;30.20;;;;;;5165235;27;19931;-53
2022/04/12 07:38:38;;;;;;;;;;;21.00;30.50;;;;;;5170790;27;20429;-48
2022/04/12 07:41:04;;;;;;;;;;;21.20;30.40;;;;;;5163804;27;19923;-55
2022/04/12 07:43:30;;;;;;;;;;;21.20;30.10;;;;;;5164889;27;20331;-53
2022/04/12 07:45:56;;;;;;;;;;;21.10;30.20;;;;;;5169350;27;20027;-58
2022/04/12 07:48:22;;;;;;;;;;;21.20;30.20;;;;;;5163096;27;19927;-59
2022/04/12 07:50:48;;;;;;;;;;;21.20;30.10;;;;;;5163804;27;20006;-52
2022/04/12 07:53:13;;;;;;;;;;;21.10;30.20;;;;;;5169283;27;19986;-52
2022/04/12 07:55:39;;;;;;;;;;;21.30;30.10;;;;;;5164820;27;19922;-54
2022/04/12 07:58:05;;;;;;;;;;;21.10;30.30;;;;;;5169625;27;20383;-56
2022/04/12 08:00:31;;;;;;;;;;;21.30;30.20;;;;;;5163633;27;19926;-45
2022/04/12 08:02:57;;;;;;;;;;;20.90;30.60;;;;;;5164372;27;19930;-56
2022/04/12 08:05:23;;;;;;;;;;;21.30;30.30;;;;;;5168434;27;20492;-47
2022/04/12 08:07:49;;;;;;;;;;;21.00;30.70;;;;;;5163416;27;19931;-55
2022/04/12 08:10:18;;;;;;;;;;;21.20;30.50;;;;;;5162814;27;20276;-51
2022/04/12 08:12:44;;;;;;;;;;;21.00;30.70;;;;;;5169801;27;19923;-55
2022/04/12 08:15:10;;;;;;;;;;;21.20;30.40;;;;;;5164376;27;19989;-58
2022/04/12 08:17:36;;;;;;;;;;;21.00;30.80;;;;;;5165308;27;20305;-55
2022/04/12 08:20:01;;;;;;;;;;;21.30;30.50;;;;;;5167855;27;19938;-52
2022/04/12 08:22:27;;;;;;;;;;;21.20;30.60;;;;;;5163827;27;19938;-53
2022/04/12 08:24:53;;;;;;;;;;;21.00;30.90;;;;;;5167597;27;19927;-54
2022/04/12 08:27:19;;;;;;;;;;;21.00;31.10;;;;;;5163493;27;19990;-57
2022/04/12 08:29:46;;;;;;;;;;;21.20;30.80;;;;;;5162663;27;19929;-49
2022/04/12 08:32:11;;;;;;;;;;;21.00;30.90;;;;;;5169852;27;19967;-59
2022/04/12 08:34:37;;;;;;;;;;;21.20;30.60;;;;;;5163997;27;20395;-47
2022/04/12 08:37:05;;;;;;;;;;;21.00;31.00;;;;;;5162686;27;19983;-60
2022/04/12 08:39:31;;;;;;;;;;;21.30;30.80;;;;;;5169485;27;19927;-57
2022/04/12 08:41:58;;;;;;;;;;;21.00;31.10;;;;;;5162434;27;20389;-57
2022/04/12 08:44:24;;;;;;;;;;;21.30;30.70;;;;;;5168077;27;19933;-57
2022/04/12 08:46:50;;;;;;;;;;;21.20;30.70;;;;;;5162217;27;19923;-57
2022/04/12 08:49:16;;;;;;;;;;;21.20;30.70;;;;;;5163414;27;19976;-58
2022/04/12 08:51:42;;;;;;;;;;;21.30;30.40;;;;;;5169341;27;19922;-50
2022/04/12 08:54:09;;;;;;;;;;;21.10;30.80;;;;;;5162788;27;20525;-57
2022/04/12 08:56:35;;;;;;;;;;;21.20;30.70;;;;;;5163254;27;20594;-51
2022/04/12 08:59:01;;;;;;;;;;;21.10;31.10;;;;;;5168554;27;19923;-54
2022/04/12 09:01:27;;;;;;;;;;;21.20;31.20;;;;;;5143080;27;19945;-56
2022/04/12 09:03:54;;;;;;;;;;;21.30;31.20;;;;;;5168263;27;19922;-54
2022/04/12 09:06:20;;;;;;;;;;;21.10;31.30;;;;;;5143718;27;20027;-58
2022/04/12 09:08:46;;;;;;;;;;;21.30;31.20;;;;;;5145150;27;20051;-57
2022/04/12 09:11:13;;;;;;;;;;;21.20;31.30;;;;;;5167644;27;19923;-57
2022/04/12 09:13:40;;;;;;;;;;;21.30;31.20;;;;;;5162236;27;20381;-55
2022/04/12 09:16:06;;;;;;;;;;;21.20;31.50;;;;;;5163587;27;20366;-55
2022/04/12 09:18:39;;;;;;;;;;;21.30;31.30;;;;;;5167606;27;19929;-56
2022/04/12 09:21:17;;;;;;;;;;;21.30;31.20;;;;;;5161709;27;19923;-57
2022/04/12 09:23:44;;;;;;;;;;;21.20;31.40;;;;;;5161992;27;20264;-55
2022/04/12 09:26:14;;;;;;;;;;;21.20;31.50;;;;;;5168394;27;19922;-56
2022/04/12 09:28:40;;;;;;;;;;;21.30;31.50;;;;;;5163292;27;19923;-58
2022/04/12 09:31:16;;;;;;;;;;;21.20;31.70;;;;;;5165495;27;20438;-57
2022/04/12 09:33:42;;;;;;;;;;;21.20;31.70;;;;;;5168478;27;19929;-58
2022/04/12 09:36:08;;;;;;;;;;;21.20;31.80;;;;;;5162488;27;19945;-53
2022/04/12 09:38:34;;;;;;;;;;;21.10;32.00;;;;;;5166410;27;20362;-55
2022/04/12 09:41:13;;;;;;;;;;;21.20;31.80;;;;;;5162251;27;19927;-56
2022/04/12 09:44:05;;;;;;;;;;;21.30;31.70;;;;;;5161589;27;19926;-57
2022/04/12 09:46:31;;;;;;;;;;;21.30;31.60;;;;;;5167945;27;19926;-58
2022/04/12 09:48:57;;;;;;;;;;;21.30;31.60;;;;;;5163816;27;19927;-58
2022/04/12 09:51:23;;;;;;;;;;;21.30;31.60;;;;;;5161946;27;19922;-59
2022/04/12 09:53:49;;;;;;;;;;;21.40;31.40;;;;;;5168266;27;19930;-58
2022/04/12 09:56:15;;;;;;;;;;;21.40;31.20;;;;;;5160901;27;20001;-58
2022/04/12 09:58:44;;;;;;;;;;;21.30;30.70;;;;;;5161801;27;20014;-59
2022/04/12 10:01:10;;;;;;;;;;;21.40;30.50;;;;;;5166561;27;19926;-55
2022/04/12 10:03:36;;;;;;;;;;;21.40;30.70;;;;;;5162722;27;20014;-57
2022/04/12 10:06:02;;;;;;;;;;;21.50;30.70;;;;;;5163661;27;19945;-58
2022/04/12 10:08:28;;;;;;;;;;;21.50;30.70;;;;;;5147653;27;20214;-58
2022/04/12 10:10:53;;;;;;;;;;;21.40;30.80;;;;;;5162555;27;19930;-52
2022/04/12 10:13:19;;;;;;;;;;;21.40;30.90;;;;;;5167517;27;20374;-57
2022/04/12 10:15:45;;;;;;;;;;;21.40;31.10;;;;;;5160427;27;19927;-58
2022/04/12 10:18:12;;;;;;;;;;;21.30;31.40;;;;;;5161713;27;20244;-58
2022/04/12 10:20:38;;;;;;;;;;;21.40;31.00;;;;;;5166813;27;19926;-55
2022/04/12 10:23:04;;;;;;;;;;;21.50;30.70;;;;;;5162053;27;19982;-57
2022/04/12 10:25:29;;;;;;;;;;;21.50;30.70;;;;;;5143717;27;19922;-55
2022/04/12 10:27:56;;;;;;;;;;;21.50;30.80;;;;;;5166845;27;19922;-59
2022/04/12 10:30:22;;;;;;;;;;;21.60;30.80;;;;;;5141979;27;20398;-58
2022/04/12 10:32:59;;;;;;;;;;;21.50;30.90;;;;;;5165376;27;21132;-57
2022/04/12 10:35:25;;;;;;;;;;;21.60;31.10;;;;;;5163024;27;19923;-59
2022/04/12 10:37:53;;;;;;;;;;;21.50;31.30;;;;;;5160663;27;19933;-59
2022/04/12 10:40:19;;;;;;;;;;;21.50;31.40;;;;;;5167531;27;19930;-59
2022/04/12 10:42:44;;;;;;;;;;;21.50;31.60;;;;;;5162071;27;19926;-59
2022/04/12 10:45:10;;;;;;;;;;;21.50;31.70;;;;;;5161096;27;19976;-58
2022/04/12 10:47:38;;;;;;;;;;;21.50;31.70;;;;;;5167708;27;20317;-54
2022/04/12 10:50:04;;;;;;;;;;;21.50;31.60;;;;;;5161380;27;19971;-58
2022/04/12 10:52:33;;;;;;;;;;;21.50;31.60;;;;;;5141585;27;19923;-56
2022/04/12 10:54:59;;;;;;;;;;;21.40;31.80;;;;;;5166576;27;19923;-55
2022/04/12 10:57:26;;;;;;;;;;;21.50;31.60;;;;;;5160829;27;19929;-55
2022/04/12 10:59:53;;;;;;;;;;;21.50;31.20;;;;;;5167694;27;19922;-59
2022/04/12 11:02:19;;;;;;;;;;;21.60;30.70;;;;;;5161875;27;19926;-57
2022/04/12 11:04:44;;;;;;;;;;;21.70;29.50;;;;;;5160730;27;19936;-59
2022/04/12 11:07:19;;;;;;;;;;;21.80;29.30;;;;;;5147093;27;19923;-58
2022/04/12 11:10:04;;;;;;;;;;;21.80;29.30;;;;;;5140614;27;19978;-57
2022/04/12 11:12:30;;;;;;;;;;;21.80;29.60;;;;;;5160725;27;19934;-58
2022/04/12 11:15:15;;;;;;;;;;;21.80;29.90;;;;;;5165474;27;20378;-55
2022/04/12 11:17:41;;;;;;;;;;;21.80;30.20;;;;;;5161775;27;20021;-55
2022/04/12 11:20:09;;;;;;;;;;;21.70;30.50;;;;;;5161757;27;19938;-56
2022/04/12 11:22:40;;;;;;;;;;;21.70;30.70;;;;;;5146590;27;19922;-54
2022/04/12 11:25:13;;;;;;;;;;;21.70;30.80;;;;;;5161648;27;20009;-55
2022/04/12 11:27:38;;;;;;;;;;;21.70;31.10;;;;;;5160497;27;20021;-56
2022/04/12 11:30:04;;;;;;;;;;;21.60;31.00;;;;;;5165335;27;19937;-58
2022/04/12 11:32:30;;;;;;;;;;;21.70;30.60;;;;;;5160081;27;19979;-56
2022/04/12 11:34:56;;;;;;;;;;;21.80;30.30;;;;;;5148627;27;20417;-58
2022/04/12 11:37:22;;;;;;;;;;;21.80;30.30;;;;;;5166976;27;19922;-58
2022/04/12 11:39:48;;;;;;;;;;;21.80;30.40;;;;;;5164686;27;19933;-59
2022/04/12 11:42:17;;;;;;;;;;;21.80;30.40;;;;;;5169616;27;20304;-57
2022/04/12 11:44:49;;;;;;;;;;;21.80;30.40;;;;;;5164907;27;20429;-60
2022/04/12 11:47:15;;;;;;;;;;;21.80;30.60;;;;;;5162875;27;19926;-57
2022/04/12 11:49:41;;;;;;;;;;;21.80;31.10;;;;;;5169494;27;20325;-57
2022/04/12 11:52:08;;;;;;;;;;;21.80;31.10;;;;;;5163093;27;19931;-51
2022/04/12 11:54:35;;;;;;;;;;;21.80;31.30;;;;;;5164891;27;20058;-58
2022/04/12 11:57:00;;;;;;;;;;;21.80;30.70;;;;;;5170320;27;19933;-58
2022/04/12 11:59:26;;;;;;;;;;;21.80;30.50;;;;;;5163728;27;19923;-56
2022/04/12 12:01:53;;;;;;;;;;;21.90;30.40;;;;;;5170126;27;19931;-55
2022/04/12 12:04:19;;;;;;;;;;;21.90;30.60;;;;;;5163627;27;19991;-58
2022/04/12 12:07:01;;;;;;;;;;;22.00;30.20;;;;;;5163018;27;19926;-57
2022/04/12 12:09:27;;;;;;;;;;;22.00;30.40;;;;;;5149935;27;19923;-51
2022/04/12 12:11:57;;;;;;;;;;;21.90;30.80;;;;;;5163626;27;19930;-59
2022/04/12 12:14:22;;;;;;;;;;;21.90;30.80;;;;;;5164656;27;19922;-55
2022/04/12 12:17:04;;;;;;;;;;;22.00;30.90;;;;;;5169251;27;19930;-57
2022/04/12 12:19:33;;;;;;;;;;;22.00;31.10;;;;;;5164189;27;19986;-57
2022/04/12 12:22:02;;;;;;;;;;;22.00;31.20;;;;;;5163784;27;19938;-57
2022/04/12 12:24:28;;;;;;;;;;;21.90;31.50;;;;;;5167587;27;20393;-58
2022/04/12 12:26:55;;;;;;;;;;;22.00;31.60;;;;;;5163414;27;19923;-57
2022/04/12 12:29:21;;;;;;;;;;;22.00;31.60;;;;;;5162788;27;19965;-56
2022/04/12 12:31:47;;;;;;;;;;;21.90;31.80;;;;;;5169854;27;19922;-58
2022/04/12 12:34:32;;;;;;;;;;;22.00;32.00;;;;;;5164085;27;19960;-57
2022/04/12 12:36:58;;;;;;;;;;;22.00;32.10;;;;;;5164873;27;19923;-57
2022/04/12 12:39:28;;;;;;;;;;;22.00;32.20;;;;;;5168031;27;20033;-55
2022/04/12 12:41:57;;;;;;;;;;;21.90;32.70;;;;;;5162305;27;19923;-57
2022/04/12 12:44:23;;;;;;;;;;;21.90;32.60;;;;;;5167853;27;19971;-54
2022/04/12 12:46:52;;;;;;;;;;;21.90;32.80;;;;;;5141777;27;19927;-59
2022/04/12 12:49:18;;;;;;;;;;;21.90;32.90;;;;;;5163883;27;19922;-59
2022/04/12 12:51:44;;;;;;;;;;;21.90;32.90;;;;;;5169277;27;20354;-59
2022/04/12 12:54:13;;;;;;;;;;;22.00;32.90;;;;;;5162562;27;19938;-59
2022/04/12 12:56:41;;;;;;;;;;;22.00;32.90;;;;;;5163626;27;20560;-55
2022/04/12 12:59:20;;;;;;;;;;;22.10;32.30;;;;;;5168479;27;19927;-58
2022/04/12 13:01:46;;;;;;;;;;;22.10;32.10;;;;;;5143203;27;19929;-58
2022/04/12 13:04:19;;;;;;;;;;;22.10;31.90;;;;;;5162880;27;20025;-58
2022/04/12 13:06:45;;;;;;;;;;;22.20;31.80;;;;;;5167978;27;20013;-57
2022/04/12 13:09:11;;;;;;;;;;;22.30;31.20;;;;;;5163703;27;19975;-54
2022/04/12 13:11:36;;;;;;;;;;;22.30;30.90;;;;;;5149997;27;19930;-56
2022/04/12 13:14:02;;;;;;;;;;;22.30;31.00;;;;;;5162610;27;20416;-59
2022/04/12 13:16:28;;;;;;;;;;;22.30;31.00;;;;;;5163292;27;19926;-57
2022/04/12 13:19:03;;;;;;;;;;;22.40;30.20;;;;;;5148381;27;19927;-59
2022/04/12 13:21:29;;;;;;;;;;;22.60;29.90;;;;;;5162194;27;19936;-56
2022/04/12 13:23:55;;;;;;;;;;;22.70;29.60;;;;;;5161576;27;20366;-57
2022/04/12 13:26:21;;;;;;;;;;;22.60;29.80;;;;;;5168831;27;19971;-58
2022/04/12 13:28:46;;;;;;;;;;;22.60;30.00;;;;;;5163458;27;20030;-57
2022/04/12 13:31:12;;;;;;;;;;;22.50;30.60;;;;;;5162310;27;19923;-59
2022/04/12 13:33:38;;;;;;;;;;;22.50;30.90;;;;;;5168433;27;20006;-60
2022/04/12 13:36:04;;;;;;;;;;;22.50;30.90;;;;;;5162734;27;20087;-53
2022/04/12 13:38:30;;;;;;;;;;;22.50;30.90;;;;;;5166283;27;20038;-57
2022/04/12 13:40:56;;;;;;;;;;;22.50;31.10;;;;;;5162087;27;19923;-60
2022/04/12 13:43:21;;;;;;;;;;;22.50;31.10;;;;;;5161553;27;19931;-57
2022/04/12 13:45:47;;;;;;;;;;;22.60;30.60;;;;;;5168527;27;19931;-58
2022/04/12 13:48:13;;;;;;;;;;;22.60;30.10;;;;;;5162938;27;20439;-58
2022/04/12 13:50:39;;;;;;;;;;;22.30;30.20;;;;;;5161685;27;19923;-59
2022/04/12 13:53:05;;;;;;;;;;;21.30;31.80;;;;;;5167946;27;19926;-59
2022/04/12 13:55:31;;;;;;;;;;;21.50;31.80;;;;;;5161405;27;19945;-58
2022/04/12 13:57:57;;;;;;;;;;;21.70;31.50;;;;;;5166083;27;20384;-59
2022/04/12 14:00:25;;;;;;;;;;;21.80;31.30;;;;;;5161321;27;19971;-59
2022/04/12 14:02:51;;;;;;;;;;;21.80;31.20;;;;;;5162178;27;20296;-59
2022/04/12 14:05:17;;;;;;;;;;;21.80;31.40;;;;;;5149863;27;19987;-59
2022/04/12 14:07:43;;;;;;;;;;;21.80;31.30;;;;;;5162163;27;19922;-59
2022/04/12 14:10:09;;;;;;;;;;;21.80;31.00;;;;;;5162091;27;19922;-59
2022/04/12 14:12:35;;;;;;;;;;;21.80;30.90;;;;;;5167556;27;20396;-59
2022/04/12 14:15:00;;;;;;;;;;;21.90;30.70;;;;;;5160448;27;19922;-59